createdAt,value
2018-03-23T00:00:58.662Z,99.99
2018-03-23T00:01:59.043Z,99.99
2018-03-23T00:02:58.742Z,99.99
2018-03-23T00:03:58.827Z,99.99
2018-03-23T00:04:58.705Z,99.99
2018-03-23T00:05:58.586Z,99.99
2018-03-23T00:06:58.568Z,99.99
2018-03-23T00:08:58.380Z,99.99
2018-03-23T00:09:58.353Z,99.99
2018-03-23T00:11:58.674Z,99.99
2018-03-23T00:12:58.285Z,99.99
2018-03-23T00:13:58.260Z,99.99
2018-03-23T00:14:58.288Z,99.99
2018-03-23T00:15:58.211Z,99.99
2018-03-23T00:16:58.195Z,99.99
2018-03-23T00:17:58.217Z,99.99
2018-03-23T00:18:58.137Z,99.99
2018-03-23T00:19:58.123Z,99.99
2018-03-23T00:20:58.095Z,99.99
2018-03-23T00:21:58.074Z,99.99
2018-03-23T00:22:58.047Z,99.99
2018-03-23T00:23:58.086Z,99.99
2018-03-23T00:24:57.993Z,99.99
2018-03-23T00:25:57.970Z,99.99
2018-03-23T00:26:57.946Z,99.99
2018-03-23T00:27:57.920Z,99.99
2018-03-23T00:28:57.905Z,99.99
2018-03-23T00:29:58.083Z,99.99
2018-03-23T00:30:57.857Z,99.99
2018-03-23T00:31:57.833Z,99.99
2018-03-23T00:33:58.001Z,99.99
2018-03-23T00:34:57.805Z,99.99
2018-03-23T00:35:57.782Z,99.99
2018-03-23T00:36:57.710Z,99.99
2018-03-23T00:37:57.713Z,99.99
2018-03-23T00:38:57.664Z,99.99
2018-03-23T00:39:57.637Z,99.99
2018-03-23T00:40:57.623Z,99.99
2018-03-23T00:41:57.640Z,99.99
2018-03-23T00:42:57.572Z,99.99
2018-03-23T00:44:57.523Z,99.99
2018-03-23T00:45:57.516Z,99.99
2018-03-23T00:46:57.478Z,99.99
2018-03-23T00:47:57.498Z,99.99
2018-03-23T00:48:57.438Z,99.99
2018-03-23T00:49:57.407Z,99.99
2018-03-23T00:50:57.385Z,99.99
2018-03-23T00:51:57.359Z,99.99
2018-03-23T00:52:57.397Z,99.99
2018-03-23T00:53:57.421Z,99.99
2018-03-23T00:54:57.291Z,99.99
2018-03-23T00:55:57.265Z,99.99
2018-03-23T00:56:57.240Z,99.99
2018-03-23T00:57:57.218Z,99.99
2018-03-23T00:58:57.192Z,99.99
2018-03-23T00:59:57.232Z,99.99
2018-03-23T01:00:57.144Z,99.99
2018-03-23T01:01:57.133Z,99.99
2018-03-23T01:02:57.098Z,99.99
2018-03-23T01:03:57.072Z,99.99
2018-03-23T01:04:57.065Z,99.99
2018-03-23T01:05:57.078Z,99.99
2018-03-23T01:06:57.010Z,99.99
2018-03-23T01:07:57.096Z,99.99
2018-03-23T01:08:56.965Z,99.99
2018-03-23T01:09:56.939Z,99.99
2018-03-23T01:10:56.917Z,99.99
2018-03-23T01:11:56.941Z,99.99
2018-03-23T01:12:56.877Z,99.99
2018-03-23T01:13:56.835Z,99.99
2018-03-23T01:14:56.806Z,99.99
2018-03-23T01:15:56.785Z,99.99
2018-03-23T01:16:56.762Z,99.99
2018-03-23T01:17:56.794Z,99.99
2018-03-23T01:18:56.724Z,99.99
2018-03-23T01:19:56.696Z,99.99
2018-03-23T01:20:56.668Z,99.99
2018-03-23T01:21:56.657Z,99.99
2018-03-23T01:22:56.629Z,99.99
2018-03-23T01:23:56.657Z,99.99
2018-03-23T01:24:56.585Z,99.99
2018-03-23T01:25:56.862Z,99.99
2018-03-23T01:26:56.533Z,99.99
2018-03-23T01:27:56.511Z,99.99
2018-03-23T01:28:56.491Z,99.99
2018-03-23T01:29:56.513Z,99.99
2018-03-23T01:30:56.448Z,99.99
2018-03-23T01:31:56.407Z,99.99
2018-03-23T01:32:56.384Z,99.99
2018-03-23T01:33:56.366Z,99.99
2018-03-23T01:34:56.341Z,99.99
2018-03-23T01:35:56.369Z,99.99
2018-03-23T01:37:56.265Z,99.99
2018-03-23T01:38:56.246Z,99.99
2018-03-23T01:39:56.219Z,99.99
2018-03-23T01:40:56.191Z,99.99
2018-03-23T01:41:56.216Z,99.99
2018-03-23T01:42:56.148Z,99.99
2018-03-23T01:43:56.114Z,99.99
2018-03-23T01:44:56.092Z,99.99
2018-03-23T01:45:56.073Z,99.99
2018-03-23T01:47:56.380Z,99.99
2018-03-23T01:48:56.058Z,99.99
2018-03-23T01:49:55.987Z,99.99
2018-03-23T01:50:55.964Z,99.99
2018-03-23T01:51:55.933Z,99.99
2018-03-23T01:52:55.917Z,99.99
2018-03-23T01:53:55.949Z,99.99
2018-03-23T01:54:55.866Z,99.99
2018-03-23T01:55:55.857Z,99.99
2018-03-23T01:56:55.916Z,99.99
2018-03-23T01:57:55.834Z,99.99
2018-03-23T01:58:55.764Z,99.99
2018-03-23T01:59:55.882Z,99.99
2018-03-23T02:00:55.705Z,99.99
2018-03-23T02:01:55.688Z,99.99
2018-03-23T02:02:55.668Z,99.99
2018-03-23T02:03:55.650Z,99.99
2018-03-23T02:04:55.617Z,99.99
2018-03-23T02:05:55.637Z,99.99
2018-03-23T02:06:55.561Z,99.99
2018-03-23T02:07:55.646Z,99.99
2018-03-23T02:08:55.515Z,99.99
2018-03-23T02:10:55.768Z,99.99
2018-03-23T02:11:55.493Z,99.99
2018-03-23T02:12:55.417Z,99.99
2018-03-23T02:14:55.377Z,99.99
2018-03-23T02:15:55.354Z,99.99
2018-03-23T02:16:55.336Z,99.99
2018-03-23T02:17:55.467Z,99.99
2018-03-23T02:18:55.280Z,99.99
2018-03-23T02:19:55.266Z,99.99
2018-03-23T02:20:55.236Z,99.99
2018-03-23T02:21:55.216Z,99.99
2018-03-23T02:22:55.188Z,99.99
2018-03-23T02:23:55.224Z,99.99
2018-03-23T02:24:55.138Z,99.99
2018-03-23T02:25:55.118Z,99.99
2018-03-23T02:26:55.086Z,99.99
2018-03-23T02:27:55.058Z,99.99
2018-03-23T02:28:55.054Z,99.99
2018-03-23T02:29:55.166Z,99.99
2018-03-23T02:30:54.980Z,99.99
2018-03-23T02:31:54.967Z,99.99
2018-03-23T02:32:54.952Z,99.99
2018-03-23T02:33:54.914Z,99.99
2018-03-23T02:34:54.893Z,99.99
2018-03-23T02:35:54.916Z,99.99
2018-03-23T02:36:54.848Z,99.99
2018-03-23T02:37:54.822Z,99.99
2018-03-23T02:38:54.807Z,99.99
2018-03-23T02:39:54.768Z,99.99
2018-03-23T02:40:54.754Z,99.99
2018-03-23T02:41:54.780Z,99.99
2018-03-23T02:42:54.704Z,99.99
2018-03-23T02:43:54.689Z,99.99
2018-03-23T02:44:54.657Z,99.99
2018-03-23T02:45:54.642Z,99.99
2018-03-23T02:46:54.610Z,99.99
2018-03-23T02:47:54.694Z,99.99
2018-03-23T02:48:54.565Z,99.99
2018-03-23T02:49:54.539Z,99.99
2018-03-23T02:50:54.510Z,99.99
2018-03-23T02:51:54.488Z,99.99
2018-03-23T02:52:54.469Z,99.99
2018-03-23T02:53:54.493Z,99.99
2018-03-23T02:54:54.417Z,99.99
2018-03-23T02:55:54.406Z,99.99
2018-03-23T02:56:54.365Z,99.99
2018-03-23T02:57:54.345Z,99.99
2018-03-23T02:58:54.409Z,99.99
2018-03-23T02:59:54.336Z,99.99
2018-03-23T03:00:54.273Z,99.99
2018-03-23T03:01:54.251Z,99.99
2018-03-23T03:02:54.229Z,99.99
2018-03-23T03:03:54.202Z,99.99
2018-03-23T03:04:54.178Z,99.99
2018-03-23T03:05:54.207Z,99.99
2018-03-23T03:06:54.129Z,99.99
2018-03-23T03:07:54.096Z,99.99
2018-03-23T03:08:54.076Z,99.99
2018-03-23T03:09:54.070Z,99.99
2018-03-23T03:10:54.028Z,99.99
2018-03-23T03:11:54.056Z,99.99
2018-03-23T03:12:53.978Z,99.99
2018-03-23T03:13:53.967Z,99.99
2018-03-23T03:14:53.936Z,99.99
2018-03-23T03:15:53.917Z,99.99
2018-03-23T03:16:53.900Z,99.99
2018-03-23T03:17:53.924Z,99.99
2018-03-23T03:18:53.831Z,99.99
2018-03-23T03:19:53.826Z,99.99
2018-03-23T03:20:53.797Z,99.99
2018-03-23T03:21:53.768Z,99.99
2018-03-23T03:22:53.798Z,99.99
2018-03-23T03:23:53.762Z,99.99
2018-03-23T03:24:53.687Z,99.99
2018-03-23T03:25:53.663Z,99.99
2018-03-23T03:26:53.638Z,99.99
2018-03-23T03:27:53.614Z,99.99
2018-03-23T03:28:53.594Z,99.99
2018-03-23T03:29:53.617Z,99.99
2018-03-23T03:30:53.552Z,99.99
2018-03-23T03:31:53.528Z,99.99
2018-03-23T03:32:53.506Z,99.99
2018-03-23T03:33:53.488Z,99.99
2018-03-23T03:34:53.512Z,99.99
2018-03-23T03:35:53.485Z,99.99
2018-03-23T03:36:53.428Z,99.99
2018-03-23T03:37:53.383Z,99.99
2018-03-23T03:38:53.362Z,99.99
2018-03-23T03:39:53.439Z,99.99
2018-03-23T03:40:53.304Z,99.99
2018-03-23T03:41:53.340Z,99.99
2018-03-23T03:42:53.263Z,99.99
2018-03-23T03:43:53.240Z,99.99
2018-03-23T03:44:53.222Z,99.99
2018-03-23T03:45:53.197Z,99.99
2018-03-23T03:46:53.216Z,99.99
2018-03-23T03:47:53.191Z,99.99
2018-03-23T03:48:53.108Z,99.99
2018-03-23T03:49:53.092Z,99.99
2018-03-23T03:50:53.068Z,99.99
2018-03-23T03:51:53.042Z,99.99
2018-03-23T03:52:53.015Z,99.99
2018-03-23T03:53:53.055Z,99.99
2018-03-23T03:54:52.976Z,99.99
2018-03-23T03:55:52.953Z,99.99
2018-03-23T03:56:52.936Z,99.99
2018-03-23T03:57:52.900Z,99.99
2018-03-23T03:58:52.869Z,99.99
2018-03-23T03:59:53.047Z,99.99
2018-03-23T04:00:52.943Z,99.99
2018-03-23T04:01:52.811Z,99.99
2018-03-23T04:02:52.793Z,99.99
2018-03-23T04:03:52.753Z,99.99
2018-03-23T04:04:52.734Z,99.99
2018-03-23T04:05:52.805Z,99.99
2018-03-23T04:06:52.686Z,99.99
2018-03-23T04:07:52.657Z,99.99
2018-03-23T04:08:52.635Z,99.99
2018-03-23T04:09:52.612Z,99.99
2018-03-23T04:10:52.587Z,99.99
2018-03-23T04:11:52.625Z,99.99
2018-03-23T04:12:52.546Z,99.99
2018-03-23T04:13:52.518Z,99.99
2018-03-23T04:14:52.503Z,99.99
2018-03-23T04:15:52.477Z,99.99
2018-03-23T04:16:52.444Z,99.99
2018-03-23T04:17:52.469Z,99.99
2018-03-23T04:18:52.393Z,99.99
2018-03-23T04:19:52.368Z,99.99
2018-03-23T04:20:52.345Z,99.99
2018-03-23T04:21:52.325Z,99.99
2018-03-23T04:22:52.307Z,99.99
2018-03-23T04:23:52.326Z,99.99
2018-03-23T04:24:52.252Z,99.99
2018-03-23T04:25:52.332Z,99.99
2018-03-23T04:26:52.210Z,99.99
2018-03-23T04:27:52.232Z,99.99
2018-03-23T04:28:52.157Z,99.99
2018-03-23T04:29:52.189Z,99.99
2018-03-23T04:30:52.107Z,99.99
2018-03-23T04:31:52.090Z,99.99
2018-03-23T04:32:52.126Z,99.99
2018-03-23T04:33:52.042Z,99.99
2018-03-23T04:34:52.018Z,99.99
2018-03-23T04:35:52.046Z,99.99
2018-03-23T04:36:52.066Z,99.99
2018-03-23T04:37:51.948Z,99.99
2018-03-23T04:38:51.929Z,99.99
2018-03-23T04:39:51.900Z,99.99
2018-03-23T04:40:51.876Z,99.99
2018-03-23T04:41:52.056Z,99.99
2018-03-23T04:42:51.820Z,99.99
2018-03-23T04:43:51.805Z,99.99
2018-03-23T04:44:51.774Z,99.99
2018-03-23T04:45:51.756Z,99.99
2018-03-23T04:46:51.726Z,99.99
2018-03-23T04:47:51.750Z,99.99
2018-03-23T04:48:51.678Z,99.99
2018-03-23T04:49:51.653Z,99.99
2018-03-23T04:50:51.628Z,99.99
2018-03-23T04:51:51.621Z,99.99
2018-03-23T04:52:51.580Z,99.99
2018-03-23T04:53:51.619Z,99.99
2018-03-23T04:54:51.533Z,99.99
2018-03-23T04:55:51.531Z,99.99
2018-03-23T04:56:51.503Z,99.99
2018-03-23T04:58:51.736Z,99.99
2018-03-23T04:59:51.467Z,99.99
2018-03-23T05:00:51.384Z,99.99
2018-03-23T05:01:51.373Z,99.99
2018-03-23T05:02:51.350Z,99.99
2018-03-23T05:03:51.324Z,99.99
2018-03-23T05:04:51.298Z,99.99
2018-03-23T05:05:51.328Z,99.99
2018-03-23T05:06:51.250Z,99.99
2018-03-23T05:07:51.225Z,99.99
2018-03-23T05:08:51.216Z,99.99
2018-03-23T05:09:51.179Z,99.99
2018-03-23T05:10:51.145Z,99.99
2018-03-23T05:11:51.181Z,99.99
2018-03-23T05:12:51.100Z,99.99
2018-03-23T05:13:51.073Z,99.99
2018-03-23T05:14:51.059Z,99.99
2018-03-23T05:15:51.027Z,99.99
2018-03-23T05:16:51.005Z,99.99
2018-03-23T05:18:50.999Z,99.99
2018-03-23T05:19:50.935Z,99.99
2018-03-23T05:20:51.015Z,99.99
2018-03-23T05:21:50.895Z,99.99
2018-03-23T05:22:50.854Z,99.99
2018-03-23T05:23:50.835Z,99.99
2018-03-23T05:24:51.194Z,99.99
2018-03-23T05:25:51.066Z,99.99
2018-03-23T05:26:50.770Z,99.99
2018-03-23T05:27:55.777Z,99.99
2018-03-23T05:28:50.726Z,99.99
2018-03-23T05:29:50.704Z,99.99
2018-03-23T05:30:50.724Z,99.99
2018-03-23T05:31:50.664Z,99.99
2018-03-23T05:32:50.630Z,99.99
2018-03-23T05:33:50.608Z,99.99
2018-03-23T05:34:50.579Z,99.99
2018-03-23T05:35:50.555Z,99.99
2018-03-23T05:36:50.585Z,99.99
2018-03-23T05:37:50.514Z,99.99
2018-03-23T06:06:56.110Z,99.99
2018-03-23T06:07:55.985Z,99.99
2018-03-23T06:08:56.058Z,99.99
2018-03-23T06:09:55.939Z,99.99
2018-03-23T06:10:55.917Z,99.99
2018-03-23T06:11:55.886Z,99.99
2018-03-23T06:12:55.971Z,99.99
2018-03-23T06:13:56.163Z,99.99
2018-03-23T06:14:55.923Z,99.99
2018-03-23T06:15:55.798Z,99.99
2018-03-23T06:16:56.126Z,99.99
2018-03-23T06:17:55.756Z,99.99
2018-03-23T06:18:55.896Z,99.99
2018-03-23T06:19:55.707Z,99.99
2018-03-23T06:20:55.979Z,99.99
2018-03-23T06:21:55.662Z,99.99
2018-03-23T06:22:55.746Z,99.99
2018-03-23T06:24:00.752Z,99.99
2018-03-23T06:24:55.691Z,99.99
2018-03-23T06:25:55.574Z,99.99
2018-03-23T06:26:55.616Z,99.99
2018-03-23T06:27:55.875Z,99.99
2018-03-23T06:28:55.498Z,99.99
2018-03-23T06:29:55.579Z,99.99
2018-03-23T06:30:55.447Z,99.99
2018-03-23T06:31:55.433Z,99.99
2018-03-23T06:32:55.503Z,99.99
2018-03-23T06:33:55.756Z,99.99
2018-03-23T06:34:55.360Z,99.99
2018-03-23T06:35:55.338Z,99.99
2018-03-23T06:36:55.321Z,99.99
2018-03-23T06:37:55.396Z,99.99
2018-03-23T06:38:55.317Z,99.99
2018-03-23T06:39:55.568Z,99.99
2018-03-23T06:40:55.234Z,99.99
2018-03-23T06:41:55.204Z,99.99
2018-03-23T06:42:55.217Z,99.99
2018-03-23T06:43:55.149Z,99.99
2018-03-23T06:44:55.214Z,99.99
2018-03-23T06:45:55.410Z,99.99
2018-03-23T06:46:55.082Z,99.99
2018-03-23T06:47:55.074Z,99.99
2018-03-23T06:48:55.087Z,99.99
2018-03-23T06:49:55.032Z,99.99
2018-03-23T06:50:55.142Z,99.99
2018-03-23T06:51:55.375Z,99.99
2018-03-23T06:52:54.942Z,99.99
2018-03-23T06:53:54.933Z,99.99
2018-03-23T06:54:55.000Z,99.99
2018-03-23T06:55:54.899Z,99.99
2018-03-23T06:56:54.869Z,99.99
2018-03-23T06:57:54.916Z,99.99
2018-03-23T06:58:55.199Z,99.99
2018-03-23T06:59:54.802Z,99.99
2018-03-23T07:00:54.875Z,99.99
2018-03-23T07:01:54.757Z,99.99
2018-03-23T07:02:54.738Z,99.99
2018-03-23T07:03:54.796Z,99.99
2018-03-23T07:04:54.984Z,99.99
2018-03-23T07:05:54.824Z,99.99
2018-03-23T07:06:54.795Z,99.99
2018-03-23T07:07:54.640Z,99.99
2018-03-23T07:08:54.595Z,99.99
2018-03-23T07:09:54.579Z,99.99
2018-03-23T07:10:54.549Z,99.99
2018-03-23T07:11:54.829Z,99.99
2018-03-23T07:12:54.611Z,99.99
2018-03-23T07:13:55.385Z,99.99
2018-03-23T07:14:54.550Z,99.99
2018-03-23T07:15:54.695Z,99.99
2018-03-23T07:16:54.433Z,99.99
2018-03-23T07:17:54.501Z,99.99
2018-03-23T07:18:54.760Z,99.99
2018-03-23T07:19:54.703Z,99.99
2018-03-23T07:20:54.392Z,99.99
2018-03-23T07:21:54.456Z,99.99
2018-03-23T07:22:54.464Z,99.99
2018-03-23T07:23:54.556Z,99.99
2018-03-23T07:24:54.255Z,99.99
2018-03-23T07:25:54.731Z,99.99
2018-03-23T07:26:54.201Z,99.99
2018-03-23T07:27:54.189Z,99.99
2018-03-23T07:28:54.160Z,99.99
2018-03-23T07:29:54.136Z,99.99
2018-03-23T07:30:54.112Z,99.99
2018-03-23T07:32:54.424Z,99.99
2018-03-23T07:33:54.155Z,99.99
2018-03-23T07:34:54.238Z,99.99
2018-03-23T07:35:54.010Z,99.99
2018-03-23T07:36:53.992Z,99.99
2018-03-23T07:37:53.997Z,99.99
2018-03-23T07:38:53.965Z,99.99
2018-03-23T07:39:54.032Z,99.99
2018-03-23T07:40:54.006Z,99.99
2018-03-23T07:41:53.940Z,99.99
2018-03-23T07:42:53.882Z,99.99
2018-03-23T07:43:53.844Z,99.99
2018-03-23T07:44:53.923Z,99.99
2018-03-23T07:45:54.102Z,99.99
2018-03-23T07:46:53.783Z,99.99
2018-03-23T07:47:53.822Z,99.99
2018-03-23T07:48:53.849Z,99.99
2018-03-23T07:49:53.723Z,99.99
2018-03-23T07:50:53.700Z,99.99
2018-03-23T07:51:53.670Z,99.99
2018-03-23T07:52:53.658Z,99.99
2018-03-23T07:53:53.680Z,99.99
2018-03-23T07:54:53.618Z,99.99
2018-03-23T07:55:53.594Z,99.99
2018-03-23T07:56:53.569Z,99.99
2018-03-23T07:57:53.556Z,99.99
2018-03-23T07:58:53.822Z,99.99
2018-03-23T07:59:53.555Z,99.99
2018-03-23T08:00:53.492Z,99.99
2018-03-23T08:01:53.464Z,99.99
2018-03-23T08:02:53.507Z,99.99
2018-03-23T08:03:53.436Z,99.99
2018-03-23T08:04:53.772Z,99.99
2018-03-23T08:05:53.382Z,99.20
2018-03-23T08:06:53.400Z,99.49
2018-03-23T08:07:53.350Z,99.39
2018-03-23T08:08:53.330Z,99.99
2018-03-23T08:09:53.404Z,99.99
2018-03-23T08:10:53.636Z,99.99
2018-03-23T08:11:53.264Z,99.99
2018-03-23T08:12:53.250Z,99.99
2018-03-23T08:13:53.322Z,99.58
2018-03-23T08:14:53.363Z,99.77
2018-03-23T08:15:53.193Z,98.82
2018-03-23T08:16:53.473Z,98.73
2018-03-23T08:17:53.254Z,98.82
2018-03-23T08:18:53.178Z,99.01
2018-03-23T08:19:53.118Z,99.77
2018-03-23T08:20:53.088Z,99.77
2018-03-23T08:21:53.070Z,99.99
2018-03-23T08:22:53.358Z,99.99
2018-03-23T08:23:53.030Z,99.58
2018-03-23T08:24:53.113Z,99.54
2018-03-23T08:25:53.002Z,99.20
2018-03-23T08:26:52.976Z,98.73
2018-03-23T08:27:52.957Z,98.63
2018-03-23T08:28:53.229Z,98.73
2018-03-23T08:29:52.963Z,99.39
2018-03-23T08:30:52.889Z,99.54
2018-03-23T08:31:53.875Z,99.06
2018-03-23T08:32:52.849Z,99.16
2018-03-23T08:33:52.841Z,99.44
2018-03-23T08:34:53.311Z,97.74
2018-03-23T08:35:52.841Z,97.26
2018-03-23T08:36:52.788Z,97.26
2018-03-23T08:37:52.754Z,98.02
2018-03-23T08:38:52.754Z,98.11
2018-03-23T08:39:52.876Z,97.26
2018-03-23T08:40:53.302Z,97.36
2018-03-23T08:41:52.695Z,96.78
2018-03-23T08:42:52.658Z,95.84
2018-03-23T08:43:52.637Z,96.03
2018-03-23T08:44:52.968Z,96.50
2018-03-23T08:45:52.595Z,96.12
2018-03-23T08:46:52.888Z,96.12
2018-03-23T08:47:52.615Z,96.31
2018-03-23T08:48:52.554Z,96.12
2018-03-23T08:49:52.623Z,96.12
2018-03-23T08:50:52.515Z,96.22
2018-03-23T08:51:52.491Z,96.03
2018-03-23T08:52:53.571Z,96.97
2018-03-23T08:53:52.756Z,97.60
2018-03-23T08:54:52.536Z,97.12
2018-03-23T08:55:52.419Z,96.64
2018-03-23T08:56:52.402Z,95.03
2018-03-23T08:57:52.384Z,95.22
2018-03-23T08:58:52.887Z,94.84
2018-03-23T08:59:52.642Z,94.70
2018-03-23T09:00:52.328Z,95.07
2018-03-23T09:01:52.407Z,95.17
2018-03-23T09:02:52.282Z,95.55
2018-03-23T09:03:52.273Z,95.55
2018-03-23T09:04:52.251Z,95.74
2018-03-23T09:05:52.534Z,96.03
2018-03-23T09:06:52.252Z,96.78
2018-03-23T09:07:52.184Z,96.22
2018-03-23T09:08:52.465Z,95.36
2018-03-23T09:09:52.146Z,95.93
2018-03-23T09:10:52.440Z,96.50
2018-03-23T09:11:53.118Z,97.45
2018-03-23T09:13:52.085Z,98.30
2018-03-23T09:14:52.126Z,97.36
2018-03-23T09:15:52.190Z,98.02
2018-03-23T09:16:52.035Z,97.92
2018-03-23T09:17:52.044Z,98.21
2018-03-23T09:18:52.285Z,98.11
2018-03-23T09:19:52.020Z,97.07
2018-03-23T09:20:51.947Z,96.93
2018-03-23T09:21:52.054Z,96.69
2018-03-23T09:22:51.906Z,96.12
2018-03-23T09:23:52.104Z,95.17
2018-03-23T09:24:52.227Z,95.31
2018-03-23T09:25:52.012Z,95.03
2018-03-23T09:26:51.836Z,95.31
2018-03-23T09:27:51.821Z,95.51
2018-03-23T09:28:51.797Z,95.98
2018-03-23T09:29:51.822Z,94.84
2018-03-23T09:30:52.060Z,95.12
2018-03-23T09:31:51.738Z,94.27
2018-03-23T09:32:51.814Z,94.65
2018-03-23T09:33:51.707Z,94.84
2018-03-23T09:34:51.689Z,95.79
2018-03-23T09:35:51.720Z,95.22
2018-03-23T09:36:51.958Z,95.12
2018-03-23T09:37:51.633Z,95.41
2018-03-23T09:38:51.614Z,93.60
2018-03-23T09:39:51.590Z,93.23
2018-03-23T09:40:51.581Z,93.32
2018-03-23T09:41:51.670Z,94.56
2018-03-23T09:42:51.860Z,94.74
2018-03-23T09:43:51.533Z,95.03
2018-03-23T09:44:51.607Z,95.12
2018-03-23T09:45:51.497Z,94.56
2018-03-23T09:46:51.527Z,93.80
2018-03-23T09:47:51.568Z,93.13
2018-03-23T09:48:51.840Z,93.60
2018-03-23T09:49:51.428Z,94.18
2018-03-23T09:50:51.395Z,94.27
2018-03-23T09:51:51.433Z,93.80
2018-03-23T09:52:51.364Z,93.13
2018-03-23T09:53:51.347Z,93.41
2018-03-23T09:54:51.654Z,94.18
2018-03-23T09:55:51.311Z,94.37
2018-03-23T09:56:51.649Z,94.37
2018-03-23T09:57:51.360Z,94.65
2018-03-23T09:58:51.267Z,94.37
2018-03-23T09:59:51.239Z,93.70
2018-03-23T10:00:51.529Z,93.51
2018-03-23T10:01:51.306Z,93.89
2018-03-23T10:02:51.244Z,93.13
2018-03-23T10:03:51.268Z,93.51
2018-03-23T10:04:51.160Z,94.03
2018-03-23T10:05:51.194Z,95.07
2018-03-23T10:06:51.429Z,96.17
2018-03-23T10:07:51.205Z,95.89
2018-03-23T10:08:51.091Z,95.89
2018-03-23T10:09:51.163Z,95.89
2018-03-23T10:10:51.043Z,96.08
2018-03-23T10:11:51.148Z,95.89
2018-03-23T10:12:51.613Z,95.22
2018-03-23T10:13:51.109Z,94.65
2018-03-23T10:14:50.994Z,94.74
2018-03-23T10:15:51.102Z,94.27
2018-03-23T10:16:51.000Z,95.22
2018-03-23T10:17:51.158Z,95.22
2018-03-23T10:18:52.195Z,95.27
2018-03-23T10:19:52.577Z,95.46
2018-03-23T10:20:51.165Z,94.70
2018-03-23T10:21:50.988Z,94.03
2018-03-23T10:22:54.811Z,94.32
2018-03-23T10:24:51.016Z,92.13
2018-03-23T10:25:51.165Z,92.32
2018-03-23T10:26:51.787Z,91.47
2018-03-23T10:27:50.744Z,91.38
2018-03-23T10:28:51.172Z,92.27
2018-03-23T10:29:50.713Z,91.85
2018-03-23T10:30:50.705Z,92.51
2018-03-23T10:31:50.975Z,93.32
2018-03-23T10:32:50.662Z,92.66
2018-03-23T10:33:50.660Z,92.04
2018-03-23T10:34:50.726Z,91.66
2018-03-23T10:35:50.613Z,92.90
2018-03-23T10:36:50.640Z,93.65
2018-03-23T10:37:50.593Z,93.65
2018-03-23T10:38:50.844Z,94.51
2018-03-23T10:39:50.595Z,95.75
2018-03-23T10:40:50.522Z,94.89
2018-03-23T10:41:50.513Z,94.79
2018-03-23T10:42:50.501Z,94.32
2018-03-23T10:43:50.474Z,92.71
2018-03-23T10:44:50.514Z,93.41
2018-03-23T10:45:50.735Z,93.51
2018-03-23T10:46:50.413Z,94.08
2018-03-23T10:47:50.447Z,94.46
2018-03-23T10:49:50.371Z,94.27
2018-03-23T10:50:50.348Z,93.65
2018-03-23T10:51:50.636Z,94.84
2018-03-23T10:52:50.513Z,94.65
2018-03-23T10:53:50.308Z,95.12
2018-03-23T10:54:50.284Z,95.60
2018-03-23T10:55:50.272Z,95.41
2018-03-23T10:56:50.241Z,95.27
2018-03-23T10:57:50.637Z,95.08
2018-03-23T10:58:50.334Z,95.65
2018-03-23T10:59:50.204Z,95.79
2018-03-23T11:00:50.186Z,96.17
2018-03-23T11:01:50.162Z,95.89
2018-03-23T11:02:50.551Z,95.60
2018-03-23T11:03:50.528Z,95.98
2018-03-23T11:04:50.276Z,95.27
2018-03-23T11:05:50.175Z,95.94
2018-03-23T11:06:50.070Z,95.03
2018-03-23T11:07:50.146Z,92.08
2018-03-23T11:08:50.036Z,91.52
2018-03-23T11:09:50.323Z,90.52
2018-03-23T11:10:50.045Z,88.75
2018-03-23T11:11:49.973Z,84.88
2018-03-23T11:12:49.959Z,80.50
2018-03-23T11:13:50.001Z,78.98
2018-03-23T11:14:49.935Z,79.35
2018-03-23T11:15:49.920Z,77.23
2018-03-23T11:16:49.906Z,74.08
2018-03-23T11:17:50.778Z,75.13
2018-03-23T11:18:49.982Z,75.22
2018-03-23T11:19:49.852Z,72.11
2018-03-23T11:20:49.933Z,70.54
2018-03-23T11:21:50.127Z,71.12
2018-03-23T11:22:49.825Z,73.47
2018-03-23T11:23:49.890Z,73.47
2018-03-23T11:24:49.785Z,72.19
2018-03-23T11:25:49.782Z,71.91
2018-03-23T11:26:49.766Z,72.03
2018-03-23T11:27:50.074Z,70.04
2018-03-23T11:28:49.891Z,68.70
2018-03-23T11:29:49.847Z,67.97
2018-03-23T11:30:49.805Z,72.19
2018-03-23T11:31:49.694Z,75.78
2018-03-23T11:32:49.936Z,77.01
2018-03-23T11:33:50.082Z,78.22
2018-03-23T11:34:49.721Z,78.50
2018-03-23T11:35:49.969Z,78.69
2018-03-23T11:36:49.716Z,78.59
2018-03-23T11:37:49.649Z,79.22
2018-03-23T11:38:49.651Z,79.99
2018-03-23T11:39:49.644Z,81.23
2018-03-23T11:40:49.708Z,82.46
2018-03-23T11:41:49.783Z,80.94
2018-03-23T11:42:49.640Z,82.32
2018-03-23T11:43:49.631Z,82.75
2018-03-23T11:44:49.623Z,83.56
2018-03-23T11:45:49.806Z,82.32
2018-03-23T11:46:49.849Z,81.85
2018-03-23T11:47:49.525Z,83.75
2018-03-23T11:48:49.525Z,82.80
2018-03-23T11:49:49.502Z,82.61
2018-03-23T11:50:49.587Z,82.32
2018-03-23T11:51:51.433Z,82.32
2018-03-23T11:52:49.471Z,82.14
2018-03-23T11:53:49.758Z,83.37
2018-03-23T11:54:49.446Z,83.56
2018-03-23T11:55:49.431Z,83.90
2018-03-23T11:56:49.521Z,82.57
2018-03-23T11:57:49.421Z,83.42
2018-03-23T11:58:49.397Z,82.57
2018-03-23T11:59:49.687Z,82.57
2018-03-23T12:00:49.364Z,84.00
2018-03-23T12:01:49.461Z,82.67
2018-03-23T12:02:49.343Z,82.28
2018-03-23T12:03:49.329Z,82.28
2018-03-23T12:04:49.318Z,82.48
2018-03-23T12:05:49.302Z,82.86
2018-03-23T12:06:49.629Z,83.42
2018-03-23T12:07:49.275Z,83.33
2018-03-23T12:08:49.268Z,83.42
2018-03-23T12:09:49.479Z,84.09
2018-03-23T12:11:49.219Z,84.56
2018-03-23T12:12:49.326Z,83.42
2018-03-23T12:13:49.495Z,83.23
2018-03-23T12:14:49.180Z,83.10
2018-03-23T12:15:49.257Z,83.33
2018-03-23T12:16:49.152Z,84.19
2018-03-23T12:17:49.130Z,83.33
2018-03-23T12:18:49.216Z,83.33
2018-03-23T12:19:49.402Z,84.56
2018-03-23T12:20:49.202Z,83.33
2018-03-23T12:21:49.082Z,83.33
2018-03-23T12:22:49.324Z,84.19
2018-03-23T12:23:49.219Z,82.67
2018-03-23T12:24:49.501Z,82.67
2018-03-23T12:25:49.068Z,83.14
2018-03-23T12:26:49.104Z,84.09
2018-03-23T12:27:48.988Z,83.14
2018-03-23T12:28:48.999Z,83.56
2018-03-23T12:29:49.708Z,82.14
2018-03-23T12:30:48.941Z,81.28
2018-03-23T12:31:49.271Z,80.04
2018-03-23T12:32:48.909Z,79.28
2018-03-23T12:33:48.892Z,79.75
2018-03-23T12:34:48.947Z,80.52
2018-03-23T12:36:49.012Z,80.71
2018-03-23T12:37:48.829Z,79.75
2018-03-23T12:38:49.235Z,81.76
2018-03-23T12:39:48.799Z,82.04
2018-03-23T12:40:48.886Z,81.95
2018-03-23T12:41:48.888Z,81.95
2018-03-23T12:42:48.764Z,81.18
2018-03-23T12:43:48.802Z,79.66
2018-03-23T12:44:49.034Z,80.52
2018-03-23T12:45:48.716Z,80.08
2018-03-23T12:46:48.716Z,79.70
2018-03-23T12:47:48.728Z,79.80
2018-03-23T12:48:48.667Z,79.80
2018-03-23T12:49:48.660Z,79.70
2018-03-23T12:50:48.816Z,79.89
2018-03-23T12:51:48.636Z,78.65
2018-03-23T12:52:48.821Z,77.61
2018-03-23T12:53:48.601Z,78.17
2018-03-23T12:54:48.735Z,78.27
2018-03-23T12:55:48.577Z,77.03
2018-03-23T12:56:48.564Z,76.98
2018-03-23T12:57:48.575Z,77.17
2018-03-23T12:58:48.536Z,77.64
2018-03-23T12:59:48.530Z,75.36
2018-03-23T13:00:48.606Z,76.12
2018-03-23T13:01:48.497Z,75.68
2018-03-23T13:02:48.780Z,75.68
2018-03-23T13:03:48.467Z,75.36
2018-03-23T13:04:48.503Z,74.82
2018-03-23T13:05:48.438Z,73.77
2018-03-23T13:06:48.560Z,73.87
2018-03-23T13:07:48.403Z,72.09
2018-03-23T13:08:48.440Z,69.84
2018-03-23T13:09:48.678Z,69.08
2018-03-23T13:10:48.372Z,68.98
2018-03-23T13:11:48.360Z,67.77
2018-03-23T13:12:48.573Z,68.03
2018-03-23T13:13:48.336Z,69.62
2018-03-23T13:14:48.418Z,70.09
2018-03-23T13:15:48.330Z,70.92
2018-03-23T13:16:48.704Z,71.83
2018-03-23T13:17:48.445Z,73.36
2018-03-23T13:18:48.274Z,73.17
2018-03-23T13:19:48.277Z,73.36
2018-03-23T13:20:48.255Z,73.65
2018-03-23T13:21:48.241Z,74.50
2018-03-23T13:22:48.409Z,75.45
2018-03-23T13:23:48.570Z,75.64
2018-03-23T13:24:48.206Z,75.55
2018-03-23T13:25:48.322Z,74.79
2018-03-23T13:27:48.230Z,76.98
2018-03-23T13:28:48.202Z,76.59
2018-03-23T13:30:48.474Z,76.50
2018-03-23T13:31:48.214Z,75.84
2018-03-23T13:32:48.108Z,74.50
2018-03-23T13:33:48.097Z,74.75
2018-03-23T13:34:48.100Z,75.13
2018-03-23T13:35:48.071Z,76.56
2018-03-23T13:36:49.014Z,75.70
2018-03-23T13:37:48.055Z,75.70
2018-03-23T13:38:48.031Z,75.79